Zunyi, China
Current Conditions -  °F | °C
As of 3:00 PM on Friday 31 Oct 2014 (Local Time) from ZUGY Reporting Station
Few Clouds Few Clouds  
Wind Chill: 70°   Ceiling: Unl
Heat Index: 70°   Visibility: 6mi
Dew Point: 61°   Wind: 11mph
Humidity: 73%   Direction: 10°N
Pressure: 29.97"   Gusts: NA
Location:  27.7°N, 106.92°E
Report Text: ZUGY 310700Z 01005MPS 9999 FEW033 21/16 Q1015 NOSIG
Loading
Personal Weather Stations






























Interactive Weather Map
Tropical Storm Tracking
New forecast layout! Learn more

10-Day Weather Forecast

Advertisements
Track Severe Weather on mobile